This is the latest recevied weather packets stored in our database for station/object PY2FGD-13. If no packets are shown the sender has not sent any weather packets the latest 10 day(s).
| Time | Temp. | Humidity | Pressure | Rain* | Wind** | Luminosity | Snow |
|---|---|---|---|---|---|---|---|
| 1777565864 | 22.22° C | 81% | 1015.6 hPa | - | - | - | - |
| 1777564060 | 22.22° C | 81% | 1016.1 hPa | - | - | - | - |
| 1777558659 | 21.67° C | 81% | 1017.4 hPa | - | - | - | - |
| 1777558059 | 21.67° C | 81% | 1017.6 hPa | - | - | - | - |
| 1777553861 | 21.11° C | 84% | 1018.1 hPa | - | - | - | - |
| 1777551477 | 20.56° C | 86% | 1017.5 hPa | - | - | - | - |
| 1777549060 | 19.44° C | 90% | 1017.5 hPa | - | - | - | - |
| 1777545459 | 18.33° C | 94% | 1016.9 hPa | - | - | - | - |
| 1777543659 | 21.67° C | 82% | 1015.9 hPa | - | - | - | - |
| 1777539474 | 21.67° C | 81% | 1015.2 hPa | - | - | - | - |
| 1777538874 | 21.67° C | 81% | 1015.1 hPa | - | - | - | - |
| 1777537659 | 21.67° C | 81% | 1015 hPa | - | - | - | - |
| 1777534074 | 22.22° C | 82% | 1014.9 hPa | - | - | - | - |
| 1777530474 | 21.67° C | 83% | 1015.5 hPa | - | - | - | - |
| 1777523259 | 22.22° C | 83% | 1018.5 hPa | - | - | - | - |
| 1777522675 | 22.22° C | 83% | 1018.6 hPa | - | - | - | - |
| 1777518459 | 22.22° C | 85% | 1018.6 hPa | - | - | - | - |
| 1777511859 | 22.78° C | 85% | 1016.5 hPa | - | - | - | - |
| 1777510659 | 22.78° C | 86% | 1016.4 hPa | - | - | - | - |
| 1777509458 | 22.78° C | 86% | 1015.8 hPa | - | - | - | - |
| 1777508259 | 22.78° C | 86% | 1015.8 hPa | - | - | - | - |
| 1777504659 | 22.22° C | 83% | 1015.7 hPa | - | - | - | - |
| 1777502875 | 22.22° C | 71% | 1015.5 hPa | - | - | - | - |
| 1777502259 | 22.22° C | 73% | 1015.4 hPa | - | - | - | - |
| 1777501658 | 22.22° C | 72% | 1015.5 hPa | - | - | - | - |
* Rain since midnight (hover to see other rain measurements)
** Current wind speed in m/s (hover to see current wind gust speed)